createdAt,value
2018-04-26T00:00:45.367Z,9.30
2018-04-26T00:01:45.341Z,9.22
2018-04-26T00:02:45.316Z,9.26
2018-04-26T00:03:45.285Z,9.27
2018-04-26T00:04:46.277Z,9.16
2018-04-26T00:05:45.263Z,9.26
2018-04-26T00:06:45.245Z,9.24
2018-04-26T00:07:45.186Z,9.30
2018-04-26T00:08:45.222Z,9.22
2018-04-26T00:09:45.133Z,9.30
2018-04-26T00:10:45.116Z,9.26
2018-04-26T00:11:45.092Z,9.27
2018-04-26T00:12:45.078Z,9.26
2018-04-26T00:13:45.086Z,9.19
2018-04-26T00:14:45.013Z,9.26
2018-04-26T00:15:45.063Z,9.24
2018-04-26T00:16:44.948Z,9.27
2018-04-26T00:17:47.044Z,9.30
2018-04-26T00:18:44.897Z,9.27
2018-04-26T00:19:45.009Z,9.30
2018-04-26T00:20:44.870Z,9.26
2018-04-26T00:21:49.627Z,9.27
2018-04-26T00:22:44.810Z,9.38
2018-04-26T00:23:44.773Z,9.32
2018-04-26T00:24:44.818Z,9.40
2018-04-26T00:25:44.727Z,9.40
2018-04-26T00:26:44.694Z,9.45
2018-04-26T00:27:45.766Z,9.44
2018-04-26T00:28:44.653Z,9.45
2018-04-26T00:29:50.605Z,9.48
2018-04-26T00:30:44.619Z,9.50
2018-04-26T00:31:49.082Z,9.59
2018-04-26T00:32:44.554Z,9.53
2018-04-26T00:33:44.529Z,9.52
2018-04-26T00:34:44.530Z,9.52
2018-04-26T00:35:44.489Z,9.63
2018-04-26T00:36:44.460Z,9.59
2018-04-26T00:37:44.429Z,9.62
2018-04-26T00:38:44.425Z,9.59
2018-04-26T00:39:44.376Z,9.63
2018-04-26T00:40:44.341Z,9.77
2018-04-26T00:41:44.321Z,9.67
2018-04-26T00:42:44.300Z,9.75
2018-04-26T00:43:44.281Z,9.73
2018-04-26T00:44:44.239Z,9.71
2018-04-26T00:45:44.211Z,9.74
2018-04-26T00:46:44.199Z,9.77
2018-04-26T00:47:45.088Z,9.74
2018-04-26T00:48:45.137Z,9.80
2018-04-26T00:49:44.123Z,9.77
2018-04-26T00:50:49.601Z,9.83
2018-04-26T00:51:44.081Z,9.83
2018-04-26T00:52:48.602Z,9.77
2018-04-26T00:53:44.017Z,9.77
2018-04-26T00:54:43.987Z,9.81
2018-04-26T00:55:43.970Z,9.85
2018-04-26T00:56:44.964Z,9.80
2018-04-26T00:57:43.948Z,9.78
2018-04-26T00:58:43.896Z,9.85
2018-04-26T00:59:43.861Z,9.91
2018-04-26T01:00:43.862Z,9.80
2018-04-26T01:01:43.819Z,9.92
2018-04-26T01:02:43.813Z,9.75
2018-04-26T01:03:43.761Z,9.83
2018-04-26T01:04:43.759Z,9.88
2018-04-26T01:05:43.713Z,9.81
2018-04-26T01:06:43.687Z,9.77
2018-04-26T01:07:43.671Z,9.78
2018-04-26T01:08:44.639Z,9.83
2018-04-26T01:09:43.610Z,9.83
2018-04-26T01:10:45.594Z,9.86
2018-04-26T01:11:43.551Z,9.83
2018-04-26T01:12:43.554Z,9.85
2018-04-26T01:13:43.511Z,9.81
2018-04-26T01:14:43.490Z,9.77
2018-04-26T01:15:43.462Z,9.85
2018-04-26T01:16:43.441Z,9.85
2018-04-26T01:17:43.399Z,9.83
2018-04-26T01:18:44.380Z,9.80
2018-04-26T01:19:43.353Z,9.88
2018-04-26T01:20:43.326Z,9.74
2018-04-26T01:21:43.302Z,9.81
2018-04-26T01:22:43.278Z,9.75
2018-04-26T01:23:43.262Z,9.80
2018-04-26T01:24:43.236Z,9.83
2018-04-26T01:25:43.208Z,9.80
2018-04-26T01:26:43.178Z,9.80
2018-04-26T01:27:43.152Z,9.78
2018-04-26T01:28:43.125Z,9.81
2018-04-26T01:29:43.101Z,9.83
2018-04-26T01:30:43.089Z,9.80
2018-04-26T01:31:43.046Z,9.85
2018-04-26T01:32:43.050Z,9.83
2018-04-26T01:33:43.001Z,9.80
2018-04-26T01:34:42.983Z,9.85
2018-04-26T01:35:42.944Z,9.86
2018-04-26T01:36:42.934Z,9.86
2018-04-26T01:37:42.902Z,9.81
2018-04-26T01:38:42.890Z,9.88
2018-04-26T01:39:42.848Z,9.75
2018-04-26T01:40:47.598Z,9.81
2018-04-26T01:41:42.804Z,9.74
2018-04-26T01:42:42.773Z,9.59
2018-04-26T01:43:42.746Z,9.53
2018-04-26T01:44:43.756Z,9.42
2018-04-26T01:45:42.705Z,9.22
2018-04-26T01:46:43.028Z,9.22
2018-04-26T01:47:42.647Z,9.08
2018-04-26T01:48:42.630Z,9.00
2018-04-26T01:49:42.594Z,8.88
2018-04-26T01:50:42.603Z,8.86
2018-04-26T01:51:42.558Z,8.68
2018-04-26T01:52:42.524Z,8.78
2018-04-26T01:53:42.515Z,8.82
2018-04-26T01:54:43.476Z,8.82
2018-04-26T01:55:42.474Z,8.68
2018-04-26T01:56:43.425Z,8.75
2018-04-26T01:57:42.391Z,8.68
2018-04-26T01:58:43.397Z,8.68
2018-04-26T01:59:42.360Z,8.65
2018-04-26T02:00:42.320Z,8.65
2018-04-26T02:01:42.299Z,8.71
2018-04-26T02:02:42.286Z,8.64
2018-04-26T02:03:42.237Z,8.70
2018-04-26T02:04:42.232Z,8.71
2018-04-26T02:05:42.186Z,8.55
2018-04-26T02:06:43.179Z,8.60
2018-04-26T02:07:42.151Z,8.70
2018-04-26T02:08:42.125Z,8.65
2018-04-26T02:09:42.089Z,8.65
2018-04-26T02:10:43.071Z,8.57
2018-04-26T02:11:42.045Z,8.60
2018-04-26T02:12:42.035Z,8.70
2018-04-26T02:13:41.987Z,8.65
2018-04-26T02:14:41.963Z,8.68
2018-04-26T02:15:41.941Z,8.68
2018-04-26T02:16:42.915Z,8.63
2018-04-26T02:17:41.887Z,8.67
2018-04-26T02:18:41.857Z,8.68
2018-04-26T02:19:41.826Z,8.70
2018-04-26T02:20:41.811Z,8.67
2018-04-26T02:21:41.778Z,8.70
2018-04-26T02:22:41.755Z,8.65
2018-04-26T02:23:41.757Z,8.65
2018-04-26T02:24:41.715Z,8.70
2018-04-26T02:25:41.682Z,8.71
2018-04-26T02:26:41.654Z,8.70
2018-04-26T02:27:41.634Z,8.71
2018-04-26T02:28:41.603Z,8.75
2018-04-26T02:29:41.599Z,8.80
2018-04-26T02:30:41.553Z,8.65
2018-04-26T02:31:41.518Z,8.61
2018-04-26T02:32:42.511Z,8.71
2018-04-26T02:33:41.475Z,8.71
2018-04-26T02:34:42.478Z,8.73
2018-04-26T02:35:41.433Z,8.65
2018-04-26T02:36:46.133Z,8.78
2018-04-26T02:37:41.374Z,8.68
2018-04-26T02:38:41.348Z,8.65
2018-04-26T02:39:41.321Z,8.64
2018-04-26T02:40:41.303Z,8.65
2018-04-26T02:41:41.275Z,8.68
2018-04-26T02:42:41.260Z,8.67
2018-04-26T02:43:41.217Z,8.65
2018-04-26T02:44:47.121Z,8.67
2018-04-26T02:45:41.173Z,8.73
2018-04-26T02:46:46.126Z,8.67
2018-04-26T02:47:41.127Z,8.68
2018-04-26T02:48:42.166Z,8.68
2018-04-26T02:49:41.068Z,8.71
2018-04-26T02:50:41.138Z,8.73
2018-04-26T02:51:41.015Z,8.78
2018-04-26T02:52:41.045Z,8.78
2018-04-26T02:53:40.962Z,8.71
2018-04-26T02:54:40.960Z,8.65
2018-04-26T02:55:40.911Z,8.65
2018-04-26T02:56:40.982Z,8.75
2018-04-26T02:57:40.856Z,8.73
2018-04-26T02:58:40.921Z,8.75
2018-04-26T02:59:40.824Z,8.75
2018-04-26T03:00:40.807Z,8.67
2018-04-26T03:01:40.765Z,8.71
2018-04-26T03:02:40.808Z,8.68
2018-04-26T03:03:40.715Z,8.85
2018-04-26T03:04:40.720Z,8.79
2018-04-26T03:05:40.675Z,8.76
2018-04-26T03:06:40.736Z,8.76
2018-04-26T03:07:40.605Z,8.76
2018-04-26T03:08:40.592Z,8.71
2018-04-26T03:09:40.546Z,8.80
2018-04-26T03:10:40.540Z,8.79
2018-04-26T03:11:40.509Z,8.85
2018-04-26T03:12:40.487Z,8.85
2018-04-26T03:13:40.454Z,8.79
2018-04-26T03:14:41.434Z,8.80
2018-04-26T03:15:40.406Z,8.70
2018-04-26T03:16:41.379Z,8.73
2018-04-26T03:17:40.359Z,8.82
2018-04-26T03:18:40.341Z,8.71
2018-04-26T03:19:40.325Z,8.70
2018-04-26T03:20:42.291Z,8.67
2018-04-26T03:21:40.256Z,8.71
2018-04-26T03:22:40.251Z,8.70
2018-04-26T03:23:40.205Z,8.57
2018-04-26T03:24:40.170Z,8.50
2018-04-26T03:25:40.142Z,8.54
2018-04-26T03:26:41.133Z,8.49
2018-04-26T03:27:40.096Z,8.58
2018-04-26T03:28:40.080Z,8.58
2018-04-26T03:29:40.056Z,8.52
2018-04-26T03:30:41.038Z,8.55
2018-04-26T03:31:39.997Z,8.60
2018-04-26T03:32:41.980Z,8.50
2018-04-26T03:33:39.941Z,8.49
2018-04-26T03:34:39.923Z,8.42
2018-04-26T03:35:39.905Z,8.47
2018-04-26T03:36:39.868Z,8.47
2018-04-26T03:37:39.847Z,8.47
2018-04-26T03:38:39.832Z,8.43
2018-04-26T03:39:39.776Z,8.50
2018-04-26T03:40:39.764Z,8.46
2018-04-26T03:41:39.741Z,8.49
2018-04-26T03:42:39.715Z,8.57
2018-04-26T03:43:39.681Z,8.43
2018-04-26T03:44:39.659Z,8.45
2018-04-26T03:45:39.646Z,8.49
2018-04-26T03:46:40.620Z,8.49
2018-04-26T03:47:39.582Z,8.55
2018-04-26T03:48:39.564Z,8.54
2018-04-26T03:49:39.535Z,8.55
2018-04-26T03:50:39.521Z,8.52
2018-04-26T03:51:39.482Z,8.50
2018-04-26T03:52:39.465Z,8.52
2018-04-26T03:53:45.149Z,8.45
2018-04-26T03:54:39.400Z,8.43
2018-04-26T03:55:39.381Z,8.46
2018-04-26T03:56:39.374Z,8.52
2018-04-26T03:57:39.333Z,8.50
2018-04-26T03:58:39.300Z,8.46
2018-04-26T03:59:39.282Z,8.42
2018-04-26T04:00:39.253Z,8.39
2018-04-26T04:01:41.289Z,8.39
2018-04-26T04:02:39.203Z,8.42
2018-04-26T04:03:39.202Z,8.32
2018-04-26T04:04:39.192Z,8.34
2018-04-26T04:05:39.141Z,8.32
2018-04-26T04:06:39.094Z,8.28
2018-04-26T04:07:39.196Z,8.22
2018-04-26T04:08:39.071Z,8.20
2018-04-26T04:09:40.035Z,8.12
2018-04-26T04:10:38.992Z,8.04
2018-04-26T04:11:38.981Z,8.00
2018-04-26T04:12:38.938Z,7.95
2018-04-26T04:13:38.921Z,7.92
2018-04-26T04:14:38.893Z,7.99
2018-04-26T04:15:39.868Z,8.06
2018-04-26T04:16:38.833Z,8.04
2018-04-26T04:17:38.807Z,8.04
2018-04-26T04:18:38.806Z,7.91
2018-04-26T04:19:39.757Z,7.94
2018-04-26T04:20:38.719Z,7.92
2018-04-26T04:21:39.717Z,7.99
2018-04-26T04:22:38.683Z,7.81
2018-04-26T04:23:38.653Z,7.84
2018-04-26T04:24:38.629Z,7.82
2018-04-26T04:25:38.616Z,7.76
2018-04-26T04:26:38.593Z,7.73
2018-04-26T04:27:38.555Z,7.67
2018-04-26T04:28:38.530Z,7.76
2018-04-26T04:29:38.822Z,7.71
2018-04-26T04:30:38.502Z,7.63
2018-04-26T04:31:38.535Z,7.76
2018-04-26T04:32:38.447Z,7.60
2018-04-26T04:33:38.401Z,7.66
2018-04-26T04:34:38.383Z,7.66
2018-04-26T04:35:38.346Z,7.58
2018-04-26T04:36:38.359Z,7.52
2018-04-26T04:37:38.293Z,7.48
2018-04-26T04:38:38.264Z,7.54
2018-04-26T04:39:38.241Z,7.54
2018-04-26T04:40:38.256Z,7.45
2018-04-26T04:41:38.201Z,7.48
2018-04-26T04:42:39.195Z,7.44
2018-04-26T04:43:38.145Z,7.44
2018-04-26T04:44:38.198Z,7.50
2018-04-26T04:45:38.085Z,7.54
2018-04-26T04:46:38.068Z,7.52
2018-04-26T04:47:38.042Z,7.54
2018-04-26T04:48:38.097Z,7.54
2018-04-26T04:49:38.000Z,7.52
2018-04-26T04:50:38.010Z,7.58
2018-04-26T04:51:37.930Z,7.58
2018-04-26T04:52:38.960Z,7.60
2018-04-26T04:53:37.876Z,7.58
2018-04-26T04:54:37.938Z,7.67
2018-04-26T04:55:37.832Z,7.62
2018-04-26T04:56:37.853Z,7.62
2018-04-26T04:57:37.775Z,7.70
2018-04-26T04:58:38.782Z,7.77
2018-04-26T04:59:37.738Z,7.76
2018-04-26T05:00:39.747Z,7.69
2018-04-26T05:01:37.669Z,7.81
2018-04-26T05:02:37.691Z,7.77
2018-04-26T05:03:37.655Z,7.85
2018-04-26T05:04:37.693Z,7.89
2018-04-26T05:05:37.565Z,7.82
2018-04-26T05:06:37.667Z,7.86
2018-04-26T05:07:37.572Z,7.86
2018-04-26T05:08:37.641Z,7.84
2018-04-26T05:09:37.498Z,7.81
2018-04-26T05:10:37.533Z,7.92
2018-04-26T05:11:37.416Z,7.95
2018-04-26T05:12:37.460Z,7.92
2018-04-26T05:13:37.397Z,7.88
2018-04-26T05:14:44.206Z,7.94
2018-04-26T05:15:37.307Z,7.94
2018-04-26T05:16:50.246Z,7.96
2018-04-26T05:17:37.271Z,7.95
2018-04-26T05:18:42.174Z,8.00
2018-04-26T05:19:37.208Z,7.92
2018-04-26T05:20:38.294Z,7.92
2018-04-26T05:21:37.161Z,7.99
2018-04-26T05:22:37.189Z,8.03
2018-04-26T05:23:37.123Z,8.06
2018-04-26T05:24:37.102Z,8.09
2018-04-26T05:25:37.123Z,8.02
2018-04-26T05:26:37.124Z,8.07
2018-04-26T05:27:37.002Z,7.99
2018-04-26T05:28:39.090Z,8.04
2018-04-26T05:29:36.947Z,8.04
2018-04-26T05:30:37.031Z,8.12
2018-04-26T05:31:36.906Z,8.12
2018-04-26T05:32:59.027Z,8.22
2018-04-26T05:33:36.922Z,8.21
2018-04-26T05:35:08.712Z,8.07
2018-04-26T05:35:36.828Z,8.12
2018-04-26T05:36:49.805Z,8.09
2018-04-26T05:37:36.746Z,8.04
2018-04-26T05:38:37.809Z,8.04
2018-04-26T05:39:36.717Z,8.22
2018-04-26T05:40:37.784Z,8.20
2018-04-26T05:41:36.668Z,8.12
2018-04-26T05:42:36.750Z,8.13
2018-04-26T05:43:36.595Z,8.13
2018-04-26T05:44:36.612Z,8.10
2018-04-26T05:45:36.566Z,8.04
2018-04-26T05:46:36.535Z,8.10
2018-04-26T05:47:36.488Z,8.04
2018-04-26T05:48:36.542Z,8.20
2018-04-26T05:49:36.434Z,8.18
2018-04-26T05:50:36.488Z,8.24
2018-04-26T05:51:36.374Z,8.36
2018-04-26T05:52:36.404Z,8.36
2018-04-26T05:53:36.337Z,8.32
2018-04-26T05:54:36.427Z,8.31
2018-04-26T05:55:36.286Z,8.27
2018-04-26T05:56:37.357Z,8.21
2018-04-26T05:57:36.231Z,8.29
2018-04-26T05:58:36.252Z,8.34
2018-04-26T05:59:36.166Z,8.32
2018-04-26T06:00:36.250Z,8.36
2018-04-26T06:01:36.123Z,8.32
2018-04-26T06:02:36.109Z,8.27
2018-04-26T06:03:36.140Z,8.25
2018-04-26T06:04:36.070Z,8.24
2018-04-26T06:05:37.100Z,8.14
2018-04-26T06:06:36.025Z,8.07
2018-04-26T06:07:36.091Z,8.02
2018-04-26T06:08:35.957Z,8.09
2018-04-26T06:09:35.908Z,8.02
2018-04-26T06:10:35.889Z,7.96
2018-04-26T06:11:36.916Z,7.96
2018-04-26T06:12:35.839Z,7.95
2018-04-26T06:13:35.816Z,8.00
2018-04-26T06:14:35.793Z,7.96
2018-04-26T06:15:35.751Z,7.95
2018-04-26T06:16:35.734Z,7.95
2018-04-26T06:17:35.717Z,8.03
2018-04-26T06:18:35.697Z,8.03
2018-04-26T06:19:35.653Z,8.06
2018-04-26T06:20:35.664Z,7.94
2018-04-26T06:21:35.609Z,8.13
2018-04-26T06:22:35.599Z,7.96
2018-04-26T06:23:35.572Z,8.00
2018-04-26T06:24:35.520Z,8.02
2018-04-26T06:25:35.512Z,8.22
2018-04-26T06:26:35.586Z,8.14
2018-04-26T06:27:35.456Z,8.24
2018-04-26T06:28:35.502Z,8.34
2018-04-26T06:29:35.416Z,8.57
2018-04-26T06:30:35.411Z,8.49
2018-04-26T06:31:35.341Z,8.54
2018-04-26T06:32:35.349Z,8.50
2018-04-26T06:33:35.399Z,8.46
2018-04-26T06:34:35.290Z,8.31
2018-04-26T06:35:35.346Z,8.31
2018-04-26T06:36:35.224Z,8.42
2018-04-26T06:37:37.321Z,8.36
2018-04-26T06:38:35.183Z,8.27
2018-04-26T06:39:35.179Z,8.27
2018-04-26T06:40:35.106Z,8.28
2018-04-26T06:41:35.088Z,8.28
2018-04-26T06:42:35.049Z,8.29
2018-04-26T06:43:35.021Z,8.36
2018-04-26T07:04:01.188Z,9.48
2018-04-26T07:05:00.039Z,9.49
2018-04-26T07:06:00.118Z,9.44
2018-04-26T07:06:59.996Z,9.50
2018-04-26T07:08:31.585Z,9.42
2018-04-26T07:08:59.944Z,9.52
2018-04-26T07:09:59.919Z,9.58
2018-04-26T07:11:11.531Z,9.59
2018-04-26T07:11:59.942Z,9.65
2018-04-26T07:13:12.570Z,9.65
2018-04-26T07:13:59.835Z,9.59
2018-04-26T07:15:20.795Z,9.65
2018-04-26T07:15:59.782Z,9.63
2018-04-26T07:16:59.769Z,9.55
2018-04-26T07:17:59.727Z,9.65
2018-04-26T07:18:59.715Z,9.71
2018-04-26T07:19:59.659Z,9.80
2018-04-26T07:20:59.635Z,9.85
2018-04-26T07:21:59.599Z,9.99
2018-04-26T07:22:59.580Z,10.10
2018-04-26T07:23:59.549Z,10.11
2018-04-26T07:24:59.517Z,10.46
2018-04-26T07:25:59.531Z,10.42
2018-04-26T07:26:59.475Z,10.46
2018-04-26T07:27:59.493Z,10.44
2018-04-26T07:28:59.468Z,10.35
2018-04-26T07:29:59.397Z,10.22
2018-04-26T07:30:59.384Z,10.29
2018-04-26T07:31:59.346Z,10.22
2018-04-26T07:32:59.379Z,10.28
2018-04-26T07:33:59.332Z,10.24
2018-04-26T07:34:59.505Z,10.25
2018-04-26T07:35:59.239Z,10.29
2018-04-26T07:37:00.323Z,10.16
2018-04-26T07:37:59.208Z,10.25
2018-04-26T07:38:59.255Z,10.17
2018-04-26T07:39:59.143Z,10.28
2018-04-26T07:40:59.235Z,10.35
2018-04-26T07:41:59.128Z,10.26
2018-04-26T07:42:59.122Z,10.34
2018-04-26T07:43:59.057Z,10.29
2018-04-26T07:44:59.033Z,10.26
2018-04-26T07:45:59.043Z,10.32
2018-04-26T07:46:58.958Z,10.32
2018-04-26T07:47:58.941Z,10.32
2018-04-26T07:48:58.968Z,10.46
2018-04-26T07:49:58.881Z,10.38
2018-04-26T07:50:58.853Z,10.47
2018-04-26T07:51:58.836Z,10.62
2018-04-26T07:52:58.824Z,10.69
2018-04-26T07:53:58.784Z,10.78
2018-04-26T07:54:58.812Z,10.91
2018-04-26T07:55:58.729Z,10.78
2018-04-26T07:56:58.806Z,10.78
2018-04-26T07:57:58.693Z,10.73
2018-04-26T07:58:58.664Z,10.70
2018-04-26T07:59:58.620Z,10.66
2018-04-26T08:00:59.657Z,10.69
2018-04-26T08:01:58.621Z,10.60
2018-04-26T08:02:58.686Z,10.63
2018-04-26T08:03:58.510Z,10.63
2018-04-26T08:04:58.495Z,10.69
2018-04-26T08:05:58.486Z,10.78
2018-04-26T08:06:58.539Z,10.94
2018-04-26T08:07:58.416Z,10.91
2018-04-26T08:08:58.483Z,10.90
2018-04-26T08:09:58.348Z,10.95
2018-04-26T08:11:03.141Z,10.94
2018-04-26T08:11:58.317Z,10.88
2018-04-26T08:12:58.311Z,10.80
2018-04-26T08:13:58.257Z,10.75
2018-04-26T08:14:59.351Z,10.81
2018-04-26T08:15:58.219Z,10.83
2018-04-26T08:16:58.233Z,10.94
2018-04-26T08:17:58.148Z,10.88
2018-04-26T08:18:59.167Z,10.91
2018-04-26T08:19:58.126Z,10.87
2018-04-26T08:20:59.182Z,10.98
2018-04-26T08:22:00.120Z,10.93
2018-04-26T08:22:58.029Z,10.98
2018-04-26T08:23:59.104Z,10.91
2018-04-26T08:24:58.043Z,10.84
2018-04-26T08:25:57.995Z,10.95
2018-04-26T08:26:57.951Z,10.78
2018-04-26T08:27:58.921Z,10.84
2018-04-26T08:28:57.863Z,10.84
2018-04-26T08:29:57.928Z,10.94
2018-04-26T08:30:57.817Z,10.88
2018-04-26T08:31:57.802Z,10.87
2018-04-26T08:32:57.770Z,10.94
2018-04-26T08:33:57.726Z,10.91
2018-04-26T08:34:57.759Z,11.13
2018-04-26T08:35:57.714Z,11.30
2018-04-26T08:36:57.730Z,11.51
2018-04-26T08:37:57.631Z,11.53
2018-04-26T08:38:57.601Z,11.49
2018-04-26T08:39:57.603Z,11.46
2018-04-26T08:40:57.563Z,11.48
2018-04-26T08:41:57.533Z,11.57
2018-04-26T08:42:57.515Z,11.51
2018-04-26T08:43:57.484Z,11.62
2018-04-26T08:44:57.500Z,11.70
2018-04-26T08:45:57.451Z,11.60
2018-04-26T08:46:57.515Z,11.72
2018-04-26T08:47:57.375Z,11.66
2018-04-26T08:48:57.343Z,11.64
2018-04-26T08:49:57.323Z,11.59
2018-04-26T08:50:57.302Z,11.51
2018-04-26T08:51:57.347Z,11.48
2018-04-26T08:52:57.249Z,11.41
2018-04-26T08:53:58.288Z,11.31
2018-04-26T08:54:57.226Z,11.31
2018-04-26T08:55:57.177Z,11.30
2018-04-26T08:56:57.145Z,11.26
2018-04-26T08:57:58.211Z,11.16
2018-04-26T08:58:57.082Z,11.17
2018-04-26T08:59:57.155Z,11.13
2018-04-26T09:00:57.052Z,11.13
2018-04-26T09:01:57.013Z,11.27
2018-04-26T09:02:56.995Z,11.30
2018-04-26T09:03:56.983Z,11.45
2018-04-26T09:04:56.937Z,11.53
2018-04-26T09:05:56.989Z,11.54
2018-04-26T09:06:56.905Z,11.54
2018-04-26T09:07:56.875Z,11.46
2018-04-26T09:08:56.850Z,11.30
2018-04-26T09:09:56.811Z,11.19
2018-04-26T09:10:56.787Z,11.03
2018-04-26T09:11:56.770Z,10.88
2018-04-26T09:12:56.841Z,10.84
2018-04-26T09:13:56.706Z,10.62
2018-04-26T09:14:56.749Z,10.47
2018-04-26T09:15:56.744Z,10.32
2018-04-26T09:16:57.680Z,10.35
2018-04-26T09:17:56.625Z,10.31
2018-04-26T09:18:56.668Z,10.31
2018-04-26T09:19:56.560Z,10.29
2018-04-26T09:20:56.539Z,10.39
2018-04-26T09:21:56.623Z,10.46
2018-04-26T09:22:56.492Z,10.66
2018-04-26T09:23:56.501Z,10.75
2018-04-26T09:24:56.506Z,10.86
2018-04-26T09:25:56.446Z,10.98
2018-04-26T09:26:58.463Z,11.01
2018-04-26T09:27:56.383Z,11.09
2018-04-26T09:29:01.148Z,11.08
2018-04-26T09:29:56.350Z,10.98
2018-04-26T09:30:56.338Z,10.99
2018-04-26T09:31:56.264Z,11.11
2018-04-26T09:33:01.090Z,11.27
2018-04-26T09:33:56.252Z,11.30
2018-04-26T09:34:56.266Z,11.39
2018-04-26T09:35:56.152Z,11.28
2018-04-26T09:37:07.161Z,11.45
2018-04-26T09:37:56.117Z,11.48
2018-04-26T09:38:57.114Z,11.60
2018-04-26T09:39:56.065Z,11.74
2018-04-26T09:40:56.036Z,11.87
2018-04-26T09:41:56.001Z,11.90
2018-04-26T09:42:56.045Z,12.13
2018-04-26T09:43:55.943Z,12.11
2018-04-26T09:45:00.696Z,12.25
2018-04-26T09:45:55.913Z,12.48
2018-04-26T09:46:56.960Z,12.49
2018-04-26T09:47:55.878Z,12.61
2018-04-26T09:49:16.816Z,12.55
2018-04-26T09:49:55.786Z,12.46
2018-04-26T09:51:02.621Z,12.70
2018-04-26T09:51:55.737Z,12.69
2018-04-26T09:52:55.796Z,12.69
2018-04-26T09:53:55.679Z,12.69
2018-04-26T09:54:57.742Z,12.77
2018-04-26T09:55:55.670Z,12.89
2018-04-26T09:57:07.616Z,12.88
2018-04-26T09:57:55.582Z,12.89
2018-04-26T09:58:55.605Z,12.80
2018-04-26T09:59:55.523Z,12.91
2018-04-26T10:00:55.605Z,12.80
2018-04-26T10:01:55.519Z,13.03
2018-04-26T10:02:55.531Z,13.10
2018-04-26T10:03:55.429Z,13.29
2018-04-26T10:04:55.435Z,13.32
2018-04-26T10:05:55.400Z,13.32
2018-04-26T10:06:55.372Z,13.32
2018-04-26T10:07:55.325Z,13.41
2018-04-26T10:09:00.170Z,13.48
2018-04-26T10:09:55.312Z,13.53
2018-04-26T10:10:55.253Z,13.55
2018-04-26T10:11:55.219Z,13.41
2018-04-26T10:12:56.235Z,13.28
2018-04-26T10:13:55.184Z,13.10
2018-04-26T10:14:55.140Z,12.94
2018-04-26T10:15:55.152Z,12.85
2018-04-26T10:16:55.233Z,12.84
2018-04-26T10:17:55.060Z,12.67
2018-04-26T10:18:59.652Z,12.59
2018-04-26T10:19:55.018Z,12.61
2018-04-26T10:20:54.991Z,12.76
2018-04-26T10:21:54.957Z,12.88
2018-04-26T10:22:54.944Z,12.94
2018-04-26T10:23:54.979Z,13.07
2018-04-26T10:24:54.881Z,13.17
2018-04-26T10:25:54.891Z,13.21
2018-04-26T10:26:54.845Z,13.29
2018-04-26T10:27:54.809Z,13.51
2018-04-26T10:28:54.812Z,13.48
2018-04-26T10:29:54.772Z,13.39
2018-04-26T10:30:54.738Z,13.24
2018-04-26T10:31:54.723Z,13.32
2018-04-26T10:32:54.681Z,13.39
2018-04-26T10:33:54.670Z,13.50
2018-04-26T10:34:54.635Z,13.57
2018-04-26T10:35:54.613Z,13.54
2018-04-26T10:36:55.671Z,13.53
2018-04-26T10:37:54.552Z,13.53
2018-04-26T10:38:54.533Z,13.72
2018-04-26T10:39:54.543Z,13.75
2018-04-26T10:40:54.488Z,13.69
2018-04-26T10:41:54.489Z,13.79
2018-04-26T10:42:54.443Z,13.81
2018-04-26T10:43:55.518Z,13.75
2018-04-26T10:44:54.369Z,13.71
2018-04-26T10:45:54.454Z,13.65
2018-04-26T10:46:54.336Z,13.63
2018-04-26T10:47:54.300Z,13.43
2018-04-26T10:48:54.290Z,13.22
2018-04-26T10:49:56.305Z,13.32
2018-04-26T10:50:54.230Z,13.29
2018-04-26T10:51:54.246Z,13.44
2018-04-26T10:52:54.257Z,13.53
2018-04-26T10:53:54.180Z,13.68
2018-04-26T10:54:55.246Z,13.91
2018-04-26T10:55:54.097Z,13.98
2018-04-26T10:56:55.109Z,14.06
2018-04-26T10:57:54.069Z,14.09
2018-04-26T10:58:54.089Z,14.16
2018-04-26T10:59:54.006Z,14.26
2018-04-26T11:00:54.005Z,14.12
2018-04-26T11:01:53.977Z,14.24
2018-04-26T11:02:53.931Z,13.96
2018-04-26T11:03:55.000Z,14.04
2018-04-26T11:04:53.910Z,14.26
2018-04-26T11:05:53.858Z,14.44
2018-04-26T11:07:14.857Z,14.63
2018-04-26T11:07:53.814Z,14.75
2018-04-26T11:08:54.809Z,14.53
2018-04-26T11:09:53.778Z,14.36
2018-04-26T11:10:54.842Z,14.64
2018-04-26T11:11:53.736Z,14.80
2018-04-26T11:12:54.739Z,14.57
2018-04-26T11:13:53.666Z,14.63
2018-04-26T11:15:19.653Z,14.66
2018-04-26T11:15:53.618Z,14.63
2018-04-26T11:16:53.656Z,14.61
2018-04-26T11:17:53.557Z,14.64
2018-04-26T11:19:05.167Z,14.69
2018-04-26T11:19:53.540Z,14.67
2018-04-26T11:21:21.154Z,14.64
2018-04-26T11:21:53.466Z,14.24
2018-04-26T11:22:53.487Z,14.01
2018-04-26T11:23:53.450Z,13.93
2018-04-26T11:24:55.450Z,13.87
2018-04-26T11:25:53.348Z,13.83
2018-04-26T11:27:14.405Z,13.87
2018-04-26T11:27:53.361Z,13.83
2018-04-26T12:30:51.483Z,14.48
2018-04-26T12:31:44.219Z,14.42
2018-04-26T12:41:30.729Z,13.55
2018-04-26T12:42:12.409Z,13.80
2018-04-26T12:43:12.305Z,13.86
2018-04-26T12:44:12.392Z,13.96
2018-04-26T12:45:12.676Z,14.27
2018-04-26T12:46:13.345Z,14.56
2018-04-26T12:47:12.263Z,14.64
2018-04-26T12:48:12.208Z,14.90
2018-04-26T12:49:12.159Z,15.13
2018-04-26T12:50:12.226Z,15.23
2018-04-26T12:51:12.102Z,15.12
2018-04-26T12:52:23.843Z,15.05
2018-04-26T12:53:12.059Z,14.72
2018-04-26T12:54:13.082Z,14.54
2018-04-26T12:55:12.044Z,14.24
2018-04-26T12:56:11.988Z,14.13
2018-04-26T12:57:12.991Z,14.06
2018-04-26T12:58:11.995Z,13.84
2018-04-26T12:59:11.987Z,13.66
2018-04-26T13:00:11.878Z,13.66
2018-04-26T13:01:11.893Z,13.41
2018-04-26T13:02:11.826Z,13.36
2018-04-26T13:03:12.832Z,13.47
2018-04-26T13:04:11.804Z,13.54
2018-04-26T13:05:16.736Z,13.62
2018-04-26T13:06:11.737Z,13.71
2018-04-26T13:07:12.746Z,13.75
2018-04-26T13:08:11.683Z,13.87
2018-04-26T13:09:13.681Z,14.04
2018-04-26T13:10:11.636Z,13.96
2018-04-26T13:11:12.716Z,13.99
2018-04-26T13:12:11.601Z,14.05
2018-04-26T13:13:11.664Z,14.02
2018-04-26T13:14:11.537Z,14.05
2018-04-26T13:15:11.592Z,14.01
2018-04-26T13:16:11.497Z,14.11
2018-04-26T13:17:11.581Z,14.30
2018-04-26T13:18:11.435Z,14.06
2018-04-26T13:19:11.512Z,14.24
2018-04-26T13:20:11.404Z,14.29
2018-04-26T13:21:12.494Z,14.36
2018-04-26T13:22:11.339Z,14.57
2018-04-26T13:23:16.295Z,14.60
2018-04-26T13:24:11.291Z,14.53
2018-04-26T13:25:18.320Z,14.66
2018-04-26T13:26:11.264Z,14.79
2018-04-26T13:27:11.507Z,14.72
2018-04-26T13:28:11.201Z,14.93
2018-04-26T13:29:15.801Z,14.82
2018-04-26T13:30:11.159Z,14.82
2018-04-26T13:31:11.228Z,14.86
2018-04-26T13:32:11.104Z,14.86
2018-04-26T13:33:11.071Z,14.87
2018-04-26T13:34:16.737Z,15.03
2018-04-26T13:35:11.068Z,15.07
2018-04-26T13:36:11.153Z,15.15
2018-04-26T13:37:10.980Z,15.25
2018-04-26T13:38:12.110Z,15.03
2018-04-26T13:39:10.933Z,14.97
2018-04-26T13:40:16.000Z,15.05
2018-04-26T13:41:10.918Z,15.15
2018-04-26T13:42:17.855Z,14.94
2018-04-26T13:43:10.869Z,14.78
2018-04-26T13:44:10.896Z,14.45
2018-04-26T13:45:10.781Z,14.27
2018-04-26T13:46:10.768Z,13.99
2018-04-26T13:47:11.855Z,14.04
2018-04-26T13:48:10.726Z,13.98
2018-04-26T13:49:10.696Z,13.81
2018-04-26T13:50:26.325Z,13.79
2018-04-26T13:51:10.699Z,13.75
2018-04-26T13:52:11.695Z,13.66
2018-04-26T13:53:10.588Z,13.68
2018-04-26T13:54:10.651Z,13.54
2018-04-26T13:55:10.573Z,13.39
2018-04-26T13:56:10.512Z,13.36
2018-04-26T13:57:10.502Z,13.32
2018-04-26T13:58:10.470Z,13.44
2018-04-26T13:59:11.542Z,13.47
2018-04-26T14:00:10.416Z,13.65
2018-04-26T14:01:10.456Z,13.84
2018-04-26T14:02:10.370Z,13.84
2018-04-26T14:03:10.404Z,13.99
2018-04-26T14:04:10.432Z,13.99
2018-04-26T14:05:10.392Z,13.91
2018-04-26T14:06:10.267Z,13.86
2018-04-26T14:07:10.258Z,13.99
2018-04-26T14:08:11.334Z,14.01
2018-04-26T14:09:10.187Z,14.02
2018-04-26T14:10:10.218Z,14.30
2018-04-26T14:11:10.168Z,14.34
2018-04-26T14:12:11.149Z,14.31
2018-04-26T14:13:10.085Z,14.26
2018-04-26T14:14:10.136Z,14.23
2018-04-26T14:15:10.049Z,14.24
2018-04-26T14:16:10.077Z,14.08
2018-04-26T14:17:10.013Z,14.17
2018-04-26T14:18:11.080Z,14.20
2018-04-26T14:19:09.975Z,14.08
2018-04-26T14:20:09.983Z,13.96
2018-04-26T14:21:09.908Z,13.94
2018-04-26T14:22:09.879Z,13.91
2018-04-26T14:23:09.911Z,13.84
2018-04-26T14:24:09.830Z,13.87
2018-04-26T14:25:09.809Z,13.91
2018-04-26T14:26:10.831Z,13.88
2018-04-26T14:27:09.756Z,13.91
2018-04-26T14:28:09.820Z,14.06
2018-04-26T14:29:09.737Z,14.12
2018-04-26T14:30:09.737Z,14.21
2018-04-26T14:31:09.649Z,14.08
2018-04-26T14:32:09.636Z,14.16
2018-04-26T14:33:09.607Z,13.96
2018-04-26T14:34:09.666Z,14.01
2018-04-26T14:35:09.561Z,14.02
2018-04-26T14:36:09.667Z,14.11